NJE221 DAOO-LEMG
Flight info
| Callsign | NJE221 |
|---|---|
| Flight time | 0h 41m |
| Altitude | 34000 |
| Route | SID73 HMB DCT LIGUM L195 INKAL |
| Aircraft | C750/M-SBDE3FGHRWXY/S |
Departure
| Time | 2026-04-20 15:59 |
|---|---|
| Airport | Oran Es-Sénia (Ahmed Ben Bella) International Airport (DAOO) |
Arrival
| Time | 2026-04-20 16:41 |
|---|---|
| Airport | Málaga-Costa del Sol Airport (LEMG) |
| Time | Latitude | Longitude | Altitude | Speed | Heading |
|---|---|---|---|---|---|
| 2026-04-20 15:46 | 35.62207 | -0.60426 | 306 ft | 0 kts | 200° |
| 2026-04-20 15:53 | 35.62202 | -0.60432 | 306 ft | 2 kts | 241° |
| 2026-04-20 15:53 | 35.62228 | -0.60454 | 306 ft | 9 kts | 334° |
| 2026-04-20 15:53 | 35.62245 | -0.60506 | 306 ft | 13 kts | 248° |
| 2026-04-20 15:53 | 35.62214 | -0.60604 | 306 ft | 11 kts | 256° |
| 2026-04-20 15:54 | 35.62240 | -0.60682 | 306 ft | 10 kts | 323° |
| 2026-04-20 15:54 | 35.62260 | -0.60753 | 306 ft | 9 kts | 255° |
| 2026-04-20 15:54 | 35.62234 | -0.60830 | 306 ft | 12 kts | 248° |
| 2026-04-20 15:54 | 35.62195 | -0.60943 | 306 ft | 17 kts | 246° |
| 2026-04-20 15:55 | 35.62144 | -0.61094 | 306 ft | 21 kts | 247° |
| 2026-04-20 15:55 | 35.62080 | -0.61280 | 306 ft | 26 kts | 247° |
| 2026-04-20 15:55 | 35.62005 | -0.61500 | 306 ft | 30 kts | 246° |
| 2026-04-20 15:55 | 35.61928 | -0.61725 | 306 ft | 28 kts | 247° |
| 2026-04-20 15:56 | 35.61855 | -0.61939 | 306 ft | 26 kts | 247° |
| 2026-04-20 15:56 | 35.61786 | -0.62143 | 306 ft | 25 kts | 247° |
| 2026-04-20 15:56 | 35.61719 | -0.62338 | 306 ft | 24 kts | 247° |
| 2026-04-20 15:56 | 35.61655 | -0.62526 | 306 ft | 23 kts | 247° |
| 2026-04-20 15:57 | 35.61593 | -0.62706 | 306 ft | 22 kts | 247° |
| 2026-04-20 15:57 | 35.61534 | -0.62879 | 306 ft | 22 kts | 247° |
| 2026-04-20 15:57 | 35.61477 | -0.63046 | 306 ft | 21 kts | 247° |
| 2026-04-20 15:57 | 35.61422 | -0.63206 | 306 ft | 20 kts | 247° |
| 2026-04-20 15:58 | 35.61410 | -0.63366 | 306 ft | 19 kts | 291° |
| 2026-04-20 15:58 | 35.61499 | -0.63467 | 306 ft | 17 kts | 338° |
| 2026-04-20 15:58 | 35.61608 | -0.63463 | 307 ft | 16 kts | 32° |
| 2026-04-20 15:58 | 35.61666 | -0.63347 | 306 ft | 23 kts | 67° |
| 2026-04-20 15:59 | 35.61881 | -0.62729 | 307 ft | 135 kts | 66° |
| 2026-04-20 15:59 | 35.62237 | -0.61567 | 806 ft | 153 kts | 65° |
| 2026-04-20 15:59 | 35.62582 | -0.60250 | 1438 ft | 170 kts | 69° |
| 2026-04-20 15:59 | 35.63014 | -0.58853 | 2103 ft | 185 kts | 66° |
| 2026-04-20 16:00 | 35.63311 | -0.57276 | 2787 ft | 204 kts | 94° |
| 2026-04-20 16:00 | 35.62624 | -0.55668 | 3490 ft | 223 kts | 134° |
| 2026-04-20 16:00 | 35.61273 | -0.54753 | 4420 ft | 227 kts | 172° |
| 2026-04-20 16:00 | 35.59743 | -0.55009 | 5469 ft | 223 kts | 207° |
| 2026-04-20 16:01 | 35.58619 | -0.56259 | 6533 ft | 220 kts | 234° |
| 2026-04-20 16:01 | 35.57724 | -0.57865 | 7307 ft | 238 kts | 237° |
| 2026-04-20 16:01 | 35.56769 | -0.59644 | 7992 ft | 261 kts | 237° |
| 2026-04-20 16:01 | 35.55738 | -0.61538 | 9027 ft | 268 kts | 236° |
| 2026-04-20 16:02 | 35.54689 | -0.63447 | 10116 ft | 273 kts | 236° |
| 2026-04-20 16:02 | 35.53587 | -0.65460 | 10576 ft | 297 kts | 236° |
| 2026-04-20 16:02 | 35.52381 | -0.67662 | 10817 ft | 325 kts | 236° |
| 2026-04-20 16:02 | 35.51074 | -0.70045 | 11240 ft | 341 kts | 236° |
| 2026-04-20 16:03 | 35.49751 | -0.72456 | 12156 ft | 342 kts | 236° |
| 2026-04-20 16:03 | 35.48411 | -0.74899 | 12920 ft | 347 kts | 236° |
| 2026-04-20 16:03 | 35.47503 | -0.77658 | 13558 ft | 356 kts | 259° |
| 2026-04-20 16:03 | 35.47486 | -0.80699 | 14340 ft | 359 kts | 276° |
| 2026-04-20 16:04 | 35.48203 | -0.83653 | 15034 ft | 364 kts | 289° |
| 2026-04-20 16:04 | 35.49155 | -0.86546 | 15761 ft | 368 kts | 290° |
| 2026-04-20 16:04 | 35.50085 | -0.89486 | 16501 ft | 371 kts | 289° |
| 2026-04-20 16:04 | 35.50972 | -0.92470 | 17290 ft | 374 kts | 288° |
| 2026-04-20 16:05 | 35.51879 | -0.95481 | 18072 ft | 378 kts | 289° |
| 2026-04-20 16:05 | 35.52820 | -0.98509 | 18774 ft | 382 kts | 289° |
| 2026-04-20 16:05 | 35.53769 | -1.01582 | 19474 ft | 387 kts | 289° |
| 2026-04-20 16:05 | 35.54714 | -1.04696 | 20174 ft | 392 kts | 289° |
| 2026-04-20 16:06 | 35.55670 | -1.07846 | 20888 ft | 396 kts | 289° |
| 2026-04-20 16:06 | 35.56645 | -1.11036 | 21586 ft | 402 kts | 289° |
| 2026-04-20 16:06 | 35.57632 | -1.14268 | 22285 ft | 407 kts | 289° |
| 2026-04-20 16:06 | 35.58627 | -1.17541 | 23051 ft | 410 kts | 289° |
| 2026-04-20 16:07 | 35.59626 | -1.20834 | 23714 ft | 414 kts | 289° |
| 2026-04-20 16:07 | 35.60638 | -1.24168 | 24290 ft | 418 kts | 289° |
| 2026-04-20 16:07 | 35.61657 | -1.27527 | 24871 ft | 422 kts | 289° |
| 2026-04-20 16:07 | 35.62686 | -1.30926 | 25442 ft | 426 kts | 289° |
| 2026-04-20 16:08 | 35.63723 | -1.34354 | 26008 ft | 430 kts | 289° |
| 2026-04-20 16:08 | 35.64766 | -1.37810 | 26570 ft | 434 kts | 289° |
| 2026-04-20 16:08 | 35.65820 | -1.41303 | 27129 ft | 438 kts | 289° |
| 2026-04-20 16:08 | 35.66882 | -1.44827 | 27690 ft | 441 kts | 289° |
| 2026-04-20 16:09 | 35.67950 | -1.48378 | 28256 ft | 446 kts | 289° |
| 2026-04-20 16:09 | 35.69032 | -1.51978 | 28851 ft | 450 kts | 289° |
| 2026-04-20 16:09 | 35.70119 | -1.55597 | 29495 ft | 453 kts | 288° |
| 2026-04-20 16:09 | 35.71214 | -1.59250 | 30090 ft | 457 kts | 288° |
| 2026-04-20 16:10 | 35.72316 | -1.62932 | 30592 ft | 461 kts | 288° |
| 2026-04-20 16:10 | 35.73425 | -1.66640 | 31199 ft | 461 kts | 288° |
| 2026-04-20 16:10 | 35.74528 | -1.70330 | 32015 ft | 458 kts | 287° |
| 2026-04-20 16:10 | 35.75620 | -1.73989 | 32874 ft | 453 kts | 287° |
| 2026-04-20 16:11 | 35.76700 | -1.77618 | 33627 ft | 450 kts | 287° |
| 2026-04-20 16:11 | 35.77779 | -1.81255 | 33921 ft | 459 kts | 287° |
| 2026-04-20 16:11 | 35.78891 | -1.85008 | 33920 ft | 473 kts | 287° |
| 2026-04-20 16:11 | 35.80035 | -1.88863 | 33922 ft | 485 kts | 287° |
| 2026-04-20 16:12 | 35.81208 | -1.92813 | 33932 ft | 497 kts | 287° |
| 2026-04-20 16:12 | 35.82406 | -1.96860 | 33938 ft | 508 kts | 287° |
| 2026-04-20 16:12 | 35.85395 | -2.04793 | 33927 ft | 514 kts | 295° |
| 2026-04-20 16:13 | 35.88728 | -2.12596 | 33933 ft | 515 kts | 294° |
| 2026-04-20 16:13 | 35.92068 | -2.20417 | 33937 ft | 516 kts | 294° |
| 2026-04-20 16:14 | 35.95406 | -2.28247 | 33938 ft | 515 kts | 294° |
| 2026-04-20 16:14 | 35.98742 | -2.36104 | 33940 ft | 517 kts | 295° |
| 2026-04-20 16:15 | 36.02077 | -2.43962 | 33939 ft | 516 kts | 294° |
| 2026-04-20 16:15 | 36.05401 | -2.51826 | 33938 ft | 517 kts | 294° |
| 2026-04-20 16:16 | 36.08724 | -2.59698 | 33939 ft | 517 kts | 294° |
| 2026-04-20 16:16 | 36.12042 | -2.67581 | 33950 ft | 517 kts | 294° |
| 2026-04-20 16:17 | 36.13700 | -2.71526 | 33828 ft | 519 kts | 295° |
| 2026-04-20 16:17 | 36.15357 | -2.75475 | 33116 ft | 512 kts | 295° |
| 2026-04-20 16:17 | 36.16989 | -2.79364 | 32442 ft | 506 kts | 295° |
| 2026-04-20 16:17 | 36.18596 | -2.83202 | 31784 ft | 500 kts | 295° |
| 2026-04-20 16:18 | 36.20184 | -2.87002 | 31130 ft | 494 kts | 295° |
| 2026-04-20 16:18 | 36.21754 | -2.90760 | 30488 ft | 489 kts | 295° |
| 2026-04-20 16:18 | 36.23303 | -2.94468 | 29821 ft | 481 kts | 295° |
| 2026-04-20 16:18 | 36.24830 | -2.98129 | 29178 ft | 477 kts | 295° |
| 2026-04-20 16:19 | 36.26340 | -3.01759 | 28548 ft | 472 kts | 295° |
| 2026-04-20 16:19 | 36.27843 | -3.05370 | 27939 ft | 468 kts | 295° |
| 2026-04-20 16:19 | 36.29328 | -3.08942 | 27320 ft | 465 kts | 295° |
| 2026-04-20 16:19 | 36.30800 | -3.12488 | 26705 ft | 460 kts | 295° |
| 2026-04-20 16:20 | 36.32256 | -3.16002 | 26104 ft | 456 kts | 295° |
| 2026-04-20 16:20 | 36.33700 | -3.19486 | 25507 ft | 452 kts | 295° |
| 2026-04-20 16:20 | 36.35128 | -3.22936 | 24913 ft | 448 kts | 295° |
| 2026-04-20 16:20 | 36.36543 | -3.26361 | 24324 ft | 444 kts | 295° |
| 2026-04-20 16:21 | 36.37946 | -3.29760 | 23742 ft | 440 kts | 295° |
| 2026-04-20 16:21 | 36.39337 | -3.33129 | 23119 ft | 436 kts | 295° |
| 2026-04-20 16:21 | 36.40713 | -3.36468 | 22546 ft | 433 kts | 295° |
| 2026-04-20 16:21 | 36.42077 | -3.39784 | 21980 ft | 430 kts | 295° |
| 2026-04-20 16:22 | 36.43412 | -3.43032 | 21420 ft | 426 kts | 295° |
| 2026-04-20 16:22 | 36.44753 | -3.46301 | 20861 ft | 423 kts | 295° |
| 2026-04-20 16:22 | 36.46093 | -3.49572 | 20304 ft | 435 kts | 295° |
| 2026-04-20 16:22 | 36.47468 | -3.52930 | 19726 ft | 434 kts | 295° |
| 2026-04-20 16:23 | 36.48841 | -3.56285 | 19149 ft | 435 kts | 295° |
| 2026-04-20 16:23 | 36.50211 | -3.59632 | 18580 ft | 433 kts | 295° |
| 2026-04-20 16:23 | 36.51572 | -3.62966 | 17985 ft | 431 kts | 295° |
| 2026-04-20 16:23 | 36.52921 | -3.66276 | 17401 ft | 428 kts | 295° |
| 2026-04-20 16:24 | 36.54262 | -3.69566 | 16844 ft | 426 kts | 295° |
| 2026-04-20 16:24 | 36.55594 | -3.72839 | 16284 ft | 423 kts | 295° |
| 2026-04-20 16:24 | 36.56916 | -3.76090 | 15729 ft | 420 kts | 295° |
| 2026-04-20 16:24 | 36.58230 | -3.79324 | 15176 ft | 417 kts | 295° |
| 2026-04-20 16:25 | 36.59536 | -3.82540 | 14629 ft | 415 kts | 295° |
| 2026-04-20 16:25 | 36.60832 | -3.85740 | 14086 ft | 413 kts | 295° |
| 2026-04-20 16:25 | 36.61960 | -3.89007 | 13949 ft | 412 kts | 290° |
| 2026-04-20 16:25 | 36.62973 | -3.92275 | 13955 ft | 412 kts | 290° |
| 2026-04-20 16:26 | 36.64035 | -3.95657 | 13960 ft | 412 kts | 290° |
| 2026-04-20 16:26 | 36.65090 | -3.98975 | 13959 ft | 412 kts | 290° |
| 2026-04-20 16:26 | 36.66137 | -4.02295 | 13962 ft | 412 kts | 290° |
| 2026-04-20 16:26 | 36.67176 | -4.05625 | 13960 ft | 413 kts | 290° |
| 2026-04-20 16:27 | 36.68219 | -4.08952 | 13940 ft | 414 kts | 290° |
| 2026-04-20 16:27 | 36.69268 | -4.12285 | 13680 ft | 413 kts | 290° |
| 2026-04-20 16:27 | 36.70309 | -4.15602 | 13320 ft | 409 kts | 290° |
| 2026-04-20 16:27 | 36.71569 | -4.18770 | 12929 ft | 408 kts | 301° |
| 2026-04-20 16:28 | 36.73196 | -4.21656 | 12600 ft | 406 kts | 304° |
| 2026-04-20 16:28 | 36.74805 | -4.24537 | 12253 ft | 403 kts | 303° |
| 2026-04-20 16:28 | 36.76380 | -4.27417 | 11898 ft | 401 kts | 303° |
| 2026-04-20 16:28 | 36.77958 | -4.30270 | 11548 ft | 399 kts | 304° |
| 2026-04-20 16:29 | 36.79537 | -4.33090 | 11199 ft | 396 kts | 304° |
| 2026-04-20 16:29 | 36.81100 | -4.35903 | 10858 ft | 393 kts | 303° |
| 2026-04-20 16:29 | 36.82600 | -4.38733 | 10496 ft | 391 kts | 300° |
| 2026-04-20 16:29 | 36.83594 | -4.41860 | 10140 ft | 387 kts | 285° |
| 2026-04-20 16:30 | 36.83962 | -4.45168 | 9805 ft | 384 kts | 272° |
| 2026-04-20 16:30 | 36.83942 | -4.48500 | 9474 ft | 384 kts | 269° |
| 2026-04-20 16:30 | 36.83923 | -4.51812 | 9139 ft | 373 kts | 270° |
| 2026-04-20 16:30 | 36.83979 | -4.54882 | 8822 ft | 335 kts | 274° |
| 2026-04-20 16:31 | 36.84513 | -4.57558 | 8501 ft | 305 kts | 292° |
| 2026-04-20 16:31 | 36.85564 | -4.59727 | 8262 ft | 284 kts | 307° |
| 2026-04-20 16:31 | 36.86913 | -4.61488 | 8029 ft | 279 kts | 313° |
| 2026-04-20 16:31 | 36.88273 | -4.63214 | 7811 ft | 278 kts | 313° |
| 2026-04-20 16:32 | 36.89628 | -4.64941 | 7612 ft | 278 kts | 313° |
| 2026-04-20 16:32 | 36.90989 | -4.66658 | 7400 ft | 279 kts | 313° |
| 2026-04-20 16:32 | 36.92336 | -4.68408 | 7148 ft | 278 kts | 309° |
| 2026-04-20 16:32 | 36.93154 | -4.70542 | 6804 ft | 267 kts | 281° |
| 2026-04-20 16:33 | 36.93264 | -4.72726 | 6875 ft | 243 kts | 269° |
| 2026-04-20 16:33 | 36.93190 | -4.74831 | 6926 ft | 245 kts | 262° |
| 2026-04-20 16:33 | 36.92473 | -4.76751 | 6615 ft | 247 kts | 230° |
| 2026-04-20 16:33 | 36.91109 | -4.77968 | 6302 ft | 241 kts | 202° |
| 2026-04-20 16:34 | 36.89486 | -4.78226 | 5969 ft | 236 kts | 175° |
| 2026-04-20 16:34 | 36.87927 | -4.77668 | 5719 ft | 237 kts | 162° |
| 2026-04-20 16:34 | 36.86500 | -4.76655 | 5532 ft | 239 kts | 141° |
| 2026-04-20 16:34 | 36.85364 | -4.75097 | 5235 ft | 239 kts | 131° |
| 2026-04-20 16:35 | 36.84290 | -4.73522 | 4918 ft | 238 kts | 132° |
| 2026-04-20 16:35 | 36.83205 | -4.71987 | 4576 ft | 233 kts | 133° |
| 2026-04-20 16:35 | 36.82154 | -4.70504 | 4258 ft | 232 kts | 132° |
| 2026-04-20 16:35 | 36.81071 | -4.68980 | 3928 ft | 231 kts | 132° |
| 2026-04-20 16:36 | 36.80012 | -4.67490 | 3607 ft | 228 kts | 132° |
| 2026-04-20 16:36 | 36.78978 | -4.66037 | 3299 ft | 224 kts | 131° |
| 2026-04-20 16:36 | 36.77951 | -4.64594 | 2983 ft | 223 kts | 131° |
| 2026-04-20 16:36 | 36.77252 | -4.63612 | 2773 ft | 223 kts | 131° |
| 2026-04-20 16:37 | 36.75945 | -4.61777 | 2372 ft | 208 kts | 131° |
| 2026-04-20 16:37 | 36.75030 | -4.60491 | 2069 ft | 181 kts | 131° |
| 2026-04-20 16:37 | 36.74241 | -4.59383 | 1835 ft | 165 kts | 131° |
| 2026-04-20 16:37 | 36.73550 | -4.58416 | 1618 ft | 135 kts | 130° |
| 2026-04-20 16:38 | 36.73152 | -4.57855 | 1497 ft | 122 kts | 129° |
| 2026-04-20 16:38 | 36.72605 | -4.57087 | 1339 ft | 120 kts | 130° |
| 2026-04-20 16:38 | 36.72046 | -4.56301 | 1177 ft | 120 kts | 130° |
| 2026-04-20 16:38 | 36.71495 | -4.55528 | 1017 ft | 118 kts | 131° |
| 2026-04-20 16:39 | 36.70948 | -4.54764 | 858 ft | 117 kts | 131° |
| 2026-04-20 16:39 | 36.70407 | -4.54007 | 692 ft | 117 kts | 130° |
| 2026-04-20 16:39 | 36.69880 | -4.53253 | 539 ft | 114 kts | 130° |
| 2026-04-20 16:39 | 36.69366 | -4.52528 | 380 ft | 113 kts | 130° |
| 2026-04-20 16:40 | 36.68838 | -4.51790 | 206 ft | 112 kts | 131° |
| 2026-04-20 16:40 | 36.68319 | -4.51068 | 70 ft | 109 kts | 130° |
| 2026-04-20 16:40 | 36.67867 | -4.50437 | 47 ft | 86 kts | 131° |
| 2026-04-20 16:40 | 36.67512 | -4.49941 | 46 ft | 67 kts | 131° |
| 2026-04-20 16:41 | 36.67229 | -4.49546 | 44 ft | 56 kts | 131° |
| 2026-04-20 16:41 | 36.66997 | -4.49222 | 44 ft | 47 kts | 131° |
| 2026-04-20 16:41 | 36.66806 | -4.48956 | 42 ft | 32 kts | 131° |
| 2026-04-20 16:41 | 36.66666 | -4.48760 | 40 ft | 29 kts | 132° |
| 2026-04-20 16:42 | 36.66549 | -4.48583 | 40 ft | 23 kts | 113° |
| 2026-04-20 16:42 | 36.66528 | -4.48412 | 44 ft | 18 kts | 53° |
| 2026-04-20 16:42 | 36.66628 | -4.48330 | 45 ft | 17 kts | 8° |
| 2026-04-20 16:42 | 36.66717 | -4.48408 | 45 ft | 16 kts | 312° |
| 2026-04-20 16:43 | 36.66782 | -4.48520 | 45 ft | 16 kts | 276° |
| 2026-04-20 16:43 | 36.66806 | -4.48587 | 44 ft | 8 kts | 30° |
| 2026-04-20 16:43 | 36.66848 | -4.48544 | 45 ft | 8 kts | 50° |
| 2026-04-20 16:43 | 36.66831 | -4.48462 | 45 ft | 13 kts | 136° |
| 2026-04-20 16:44 | 36.66825 | -4.48400 | 45 ft | 0 kts | 43° |